sensor_id;sensor_type;location;lat;lon;timestamp;P1;durP1;ratioP1;P2;durP2;ratioP2
19167;SDS011;9716;53.114;18.040;2022-08-25T00:02:05;7.93;;;3.88;;
19167;SDS011;9716;53.114;18.040;2022-08-25T00:04:37;10.88;;;4.10;;
19167;SDS011;9716;53.114;18.040;2022-08-25T00:07:08;9.60;;;3.97;;
19167;SDS011;9716;53.114;18.040;2022-08-25T00:09:36;13.23;;;3.88;;
19167;SDS011;9716;53.114;18.040;2022-08-25T00:12:05;7.07;;;3.20;;
19167;SDS011;9716;53.114;18.040;2022-08-25T00:14:35;10.98;;;3.88;;
19167;SDS011;9716;53.114;18.040;2022-08-25T00:17:05;11.02;;;4.28;;
19167;SDS011;9716;53.114;18.040;2022-08-25T00:19:35;8.93;;;3.90;;
19167;SDS011;9716;53.114;18.040;2022-08-25T00:22:04;9.77;;;4.03;;
19167;SDS011;9716;53.114;18.040;2022-08-25T00:24:34;7.18;;;4.18;;
19167;SDS011;9716;53.114;18.040;2022-08-25T00:27:03;6.03;;;4.10;;
19167;SDS011;9716;53.114;18.040;2022-08-25T00:29:32;6.85;;;3.97;;
19167;SDS011;9716;53.114;18.040;2022-08-25T00:32:05;12.18;;;4.13;;
19167;SDS011;9716;53.114;18.040;2022-08-25T00:34:35;5.10;;;3.20;;
19167;SDS011;9716;53.114;18.040;2022-08-25T00:37:05;17.27;;;3.80;;
19167;SDS011;9716;53.114;18.040;2022-08-25T00:39:36;6.68;;;3.35;;
19167;SDS011;9716;53.114;18.040;2022-08-25T00:42:06;10.95;;;4.35;;
19167;SDS011;9716;53.114;18.040;2022-08-25T00:44:41;11.98;;;3.53;;
19167;SDS011;9716;53.114;18.040;2022-08-25T00:47:12;11.18;;;4.25;;
19167;SDS011;9716;53.114;18.040;2022-08-25T00:49:41;5.85;;;3.30;;
19167;SDS011;9716;53.114;18.040;2022-08-25T00:52:14;11.20;;;4.03;;
19167;SDS011;9716;53.114;18.040;2022-08-25T00:54:46;10.27;;;3.85;;
19167;SDS011;9716;53.114;18.040;2022-08-25T00:57:19;19.35;;;4.43;;
19167;SDS011;9716;53.114;18.040;2022-08-25T01:00:00;6.80;;;3.83;;
19167;SDS011;9716;53.114;18.040;2022-08-25T01:02:39;11.90;;;4.53;;
19167;SDS011;9716;53.114;18.040;2022-08-25T01:05:08;6.72;;;4.03;;
19167;SDS011;9716;53.114;18.040;2022-08-25T01:07:37;10.35;;;4.57;;
19167;SDS011;9716;53.114;18.040;2022-08-25T01:10:09;9.63;;;4.80;;
19167;SDS011;9716;53.114;18.040;2022-08-25T01:12:39;7.72;;;4.68;;
19167;SDS011;9716;53.114;18.040;2022-08-25T01:15:08;7.32;;;4.45;;
19167;SDS011;9716;53.114;18.040;2022-08-25T01:17:46;12.65;;;5.10;;
19167;SDS011;9716;53.114;18.040;2022-08-25T01:20:15;17.55;;;4.93;;
19167;SDS011;9716;53.114;18.040;2022-08-25T01:22:48;17.67;;;5.55;;
19167;SDS011;9716;53.114;18.040;2022-08-25T01:25:25;12.57;;;5.15;;
19167;SDS011;9716;53.114;18.040;2022-08-25T01:27:59;15.93;;;5.88;;
19167;SDS011;9716;53.114;18.040;2022-08-25T01:30:28;15.68;;;5.10;;
19167;SDS011;9716;53.114;18.040;2022-08-25T01:32:57;8.77;;;5.13;;
19167;SDS011;9716;53.114;18.040;2022-08-25T01:35:25;14.02;;;4.53;;
19167;SDS011;9716;53.114;18.040;2022-08-25T01:37:55;9.98;;;4.63;;
19167;SDS011;9716;53.114;18.040;2022-08-25T01:40:24;14.40;;;4.63;;
19167;SDS011;9716;53.114;18.040;2022-08-25T01:42:53;6.88;;;4.30;;
19167;SDS011;9716;53.114;18.040;2022-08-25T01:45:28;9.82;;;5.22;;
19167;SDS011;9716;53.114;18.040;2022-08-25T01:47:57;8.27;;;4.63;;
19167;SDS011;9716;53.114;18.040;2022-08-25T01:50:26;9.75;;;4.97;;
19167;SDS011;9716;53.114;18.040;2022-08-25T01:52:57;6.85;;;4.85;;
19167;SDS011;9716;53.114;18.040;2022-08-25T01:55:29;9.30;;;4.78;;
19167;SDS011;9716;53.114;18.040;2022-08-25T01:58:17;6.72;;;4.30;;
19167;SDS011;9716;53.114;18.040;2022-08-25T02:00:46;10.38;;;4.28;;
19167;SDS011;9716;53.114;18.040;2022-08-25T02:03:16;8.25;;;4.10;;
19167;SDS011;9716;53.114;18.040;2022-08-25T02:05:45;8.77;;;4.38;;
19167;SDS011;9716;53.114;18.040;2022-08-25T02:08:18;8.07;;;3.97;;
19167;SDS011;9716;53.114;18.040;2022-08-25T02:10:48;9.27;;;5.18;;
19167;SDS011;9716;53.114;18.040;2022-08-25T02:13:17;5.93;;;4.32;;
19167;SDS011;9716;53.114;18.040;2022-08-25T02:15:53;10.38;;;5.35;;
19167;SDS011;9716;53.114;18.040;2022-08-25T02:18:23;10.75;;;4.70;;
19167;SDS011;9716;53.114;18.040;2022-08-25T02:20:52;7.47;;;4.55;;
19167;SDS011;9716;53.114;18.040;2022-08-25T02:23:22;10.43;;;4.70;;
19167;SDS011;9716;53.114;18.040;2022-08-25T02:25:51;7.35;;;4.00;;
19167;SDS011;9716;53.114;18.040;2022-08-25T02:28:19;8.70;;;5.05;;
19167;SDS011;9716;53.114;18.040;2022-08-25T02:30:48;11.77;;;5.28;;
19167;SDS011;9716;53.114;18.040;2022-08-25T02:33:24;12.07;;;4.40;;
19167;SDS011;9716;53.114;18.040;2022-08-25T02:35:55;7.32;;;4.47;;
19167;SDS011;9716;53.114;18.040;2022-08-25T02:38:27;8.93;;;4.70;;
19167;SDS011;9716;53.114;18.040;2022-08-25T02:40:56;6.25;;;4.07;;
19167;SDS011;9716;53.114;18.040;2022-08-25T02:43:26;11.48;;;5.57;;
19167;SDS011;9716;53.114;18.040;2022-08-25T02:45:55;6.63;;;4.32;;
19167;SDS011;9716;53.114;18.040;2022-08-25T02:48:25;7.63;;;4.70;;
19167;SDS011;9716;53.114;18.040;2022-08-25T02:50:54;10.18;;;5.43;;
19167;SDS011;9716;53.114;18.040;2022-08-25T02:53:29;6.47;;;4.07;;
19167;SDS011;9716;53.114;18.040;2022-08-25T02:55:58;10.93;;;5.53;;
19167;SDS011;9716;53.114;18.040;2022-08-25T02:58:27;14.35;;;5.18;;
19167;SDS011;9716;53.114;18.040;2022-08-25T03:00:55;8.75;;;5.50;;
19167;SDS011;9716;53.114;18.040;2022-08-25T03:03:24;12.60;;;4.18;;
19167;SDS011;9716;53.114;18.040;2022-08-25T03:05:53;8.32;;;5.20;;
19167;SDS011;9716;53.114;18.040;2022-08-25T03:08:22;16.08;;;6.22;;
19167;SDS011;9716;53.114;18.040;2022-08-25T03:10:53;13.13;;;6.90;;
19167;SDS011;9716;53.114;18.040;2022-08-25T03:13:21;9.07;;;5.38;;
19167;SDS011;9716;53.114;18.040;2022-08-25T03:15:50;11.02;;;6.18;;
19167;SDS011;9716;53.114;18.040;2022-08-25T03:18:20;11.25;;;6.80;;
19167;SDS011;9716;53.114;18.040;2022-08-25T03:20:50;15.75;;;7.30;;
19167;SDS011;9716;53.114;18.040;2022-08-25T03:23:18;13.25;;;6.18;;
19167;SDS011;9716;53.114;18.040;2022-08-25T03:25:47;14.80;;;7.25;;
19167;SDS011;9716;53.114;18.040;2022-08-25T03:28:35;16.08;;;5.20;;
19167;SDS011;9716;53.114;18.040;2022-08-25T03:31:04;7.72;;;5.80;;
19167;SDS011;9716;53.114;18.040;2022-08-25T03:33:33;16.95;;;7.13;;
19167;SDS011;9716;53.114;18.040;2022-08-25T03:36:02;20.48;;;6.32;;
19167;SDS011;9716;53.114;18.040;2022-08-25T03:38:32;15.95;;;6.40;;
19167;SDS011;9716;53.114;18.040;2022-08-25T03:41:01;8.88;;;5.88;;
19167;SDS011;9716;53.114;18.040;2022-08-25T03:43:42;13.13;;;6.82;;
19167;SDS011;9716;53.114;18.040;2022-08-25T03:46:18;13.98;;;5.50;;
19167;SDS011;9716;53.114;18.040;2022-08-25T03:48:49;11.05;;;6.00;;
19167;SDS011;9716;53.114;18.040;2022-08-25T03:51:19;8.07;;;5.50;;
19167;SDS011;9716;53.114;18.040;2022-08-25T03:53:49;13.60;;;6.63;;
19167;SDS011;9716;53.114;18.040;2022-08-25T03:56:18;17.30;;;5.88;;
19167;SDS011;9716;53.114;18.040;2022-08-25T03:58:48;16.70;;;5.95;;
19167;SDS011;9716;53.114;18.040;2022-08-25T04:01:17;15.25;;;5.03;;
19167;SDS011;9716;53.114;18.040;2022-08-25T04:03:47;12.85;;;6.45;;
19167;SDS011;9716;53.114;18.040;2022-08-25T04:06:16;14.40;;;5.85;;
19167;SDS011;9716;53.114;18.040;2022-08-25T04:08:46;21.85;;;5.85;;
19167;SDS011;9716;53.114;18.040;2022-08-25T04:11:16;9.40;;;5.55;;
19167;SDS011;9716;53.114;18.040;2022-08-25T04:13:47;8.57;;;5.40;;
19167;SDS011;9716;53.114;18.040;2022-08-25T04:16:19;9.98;;;5.10;;
19167;SDS011;9716;53.114;18.040;2022-08-25T04:18:51;8.90;;;5.18;;
19167;SDS011;9716;53.114;18.040;2022-08-25T04:21:21;16.08;;;5.05;;
19167;SDS011;9716;53.114;18.040;2022-08-25T04:23:51;16.20;;;5.43;;
19167;SDS011;9716;53.114;18.040;2022-08-25T04:26:21;11.98;;;5.88;;
19167;SDS011;9716;53.114;18.040;2022-08-25T04:28:53;17.65;;;5.07;;
19167;SDS011;9716;53.114;18.040;2022-08-25T04:31:24;15.93;;;5.47;;
19167;SDS011;9716;53.114;18.040;2022-08-25T04:33:55;12.00;;;5.68;;
19167;SDS011;9716;53.114;18.040;2022-08-25T04:36:25;9.05;;;4.90;;
19167;SDS011;9716;53.114;18.040;2022-08-25T04:38:55;9.43;;;4.85;;
19167;SDS011;9716;53.114;18.040;2022-08-25T04:41:24;9.77;;;5.68;;
19167;SDS011;9716;53.114;18.040;2022-08-25T04:43:54;7.63;;;5.18;;
19167;SDS011;9716;53.114;18.040;2022-08-25T04:46:26;12.32;;;5.07;;
19167;SDS011;9716;53.114;18.040;2022-08-25T04:48:58;21.65;;;5.90;;
19167;SDS011;9716;53.114;18.040;2022-08-25T04:51:29;5.93;;;4.53;;
19167;SDS011;9716;53.114;18.040;2022-08-25T04:54:00;15.48;;;5.43;;
19167;SDS011;9716;53.114;18.040;2022-08-25T04:56:31;17.83;;;4.85;;
19167;SDS011;9716;53.114;18.040;2022-08-25T04:59:02;9.00;;;4.90;;
19167;SDS011;9716;53.114;18.040;2022-08-25T05:01:32;8.75;;;4.47;;
19167;SDS011;9716;53.114;18.040;2022-08-25T05:04:03;23.95;;;5.13;;
19167;SDS011;9716;53.114;18.040;2022-08-25T05:06:40;6.70;;;4.60;;
19167;SDS011;9716;53.114;18.040;2022-08-25T05:09:10;8.45;;;4.63;;
19167;SDS011;9716;53.114;18.040;2022-08-25T05:11:45;12.52;;;4.85;;
19167;SDS011;9716;53.114;18.040;2022-08-25T05:14:15;9.50;;;5.13;;
19167;SDS011;9716;53.114;18.040;2022-08-25T05:16:51;11.95;;;4.80;;
19167;SDS011;9716;53.114;18.040;2022-08-25T05:19:20;14.43;;;4.82;;
19167;SDS011;9716;53.114;18.040;2022-08-25T05:21:50;16.88;;;4.72;;
19167;SDS011;9716;53.114;18.040;2022-08-25T05:24:19;8.75;;;4.50;;
19167;SDS011;9716;53.114;18.040;2022-08-25T05:26:48;11.68;;;4.32;;
19167;SDS011;9716;53.114;18.040;2022-08-25T05:29:18;7.25;;;3.78;;
19167;SDS011;9716;53.114;18.040;2022-08-25T05:31:47;12.27;;;3.80;;
19167;SDS011;9716;53.114;18.040;2022-08-25T05:34:17;6.03;;;3.55;;
19167;SDS011;9716;53.114;18.040;2022-08-25T05:36:46;12.65;;;4.55;;
19167;SDS011;9716;53.114;18.040;2022-08-25T05:39:15;12.88;;;4.38;;
19167;SDS011;9716;53.114;18.040;2022-08-25T05:41:44;7.32;;;4.07;;
19167;SDS011;9716;53.114;18.040;2022-08-25T05:44:13;6.80;;;4.22;;
19167;SDS011;9716;53.114;18.040;2022-08-25T05:46:48;15.20;;;4.45;;
19167;SDS011;9716;53.114;18.040;2022-08-25T05:49:18;14.38;;;4.45;;
19167;SDS011;9716;53.114;18.040;2022-08-25T05:51:46;5.93;;;3.63;;
19167;SDS011;9716;53.114;18.040;2022-08-25T05:54:15;4.35;;;3.45;;
19167;SDS011;9716;53.114;18.040;2022-08-25T05:56:44;9.18;;;4.00;;
19167;SDS011;9716;53.114;18.040;2022-08-25T05:59:12;4.35;;;3.03;;
19167;SDS011;9716;53.114;18.040;2022-08-25T06:01:41;10.55;;;4.38;;
19167;SDS011;9716;53.114;18.040;2022-08-25T06:04:29;14.98;;;4.43;;
19167;SDS011;9716;53.114;18.040;2022-08-25T06:06:58;6.78;;;2.97;;
19167;SDS011;9716;53.114;18.040;2022-08-25T06:09:26;11.65;;;3.40;;
19167;SDS011;9716;53.114;18.040;2022-08-25T06:11:55;7.00;;;3.38;;
19167;SDS011;9716;53.114;18.040;2022-08-25T06:14:24;8.68;;;4.03;;
19167;SDS011;9716;53.114;18.040;2022-08-25T06:16:53;8.75;;;3.58;;
19167;SDS011;9716;53.114;18.040;2022-08-25T06:19:22;5.97;;;3.05;;
19167;SDS011;9716;53.114;18.040;2022-08-25T06:21:56;8.63;;;3.72;;
19167;SDS011;9716;53.114;18.040;2022-08-25T06:24:26;9.85;;;3.88;;
19167;SDS011;9716;53.114;18.040;2022-08-25T06:26:55;12.18;;;3.65;;
19167;SDS011;9716;53.114;18.040;2022-08-25T06:29:24;6.60;;;3.10;;
19167;SDS011;9716;53.114;18.040;2022-08-25T06:31:53;4.97;;;3.20;;
19167;SDS011;9716;53.114;18.040;2022-08-25T06:34:22;15.93;;;4.57;;
19167;SDS011;9716;53.114;18.040;2022-08-25T06:36:51;8.65;;;3.67;;
19167;SDS011;9716;53.114;18.040;2022-08-25T06:39:21;12.77;;;3.80;;
19167;SDS011;9716;53.114;18.040;2022-08-25T06:41:51;11.45;;;3.88;;
19167;SDS011;9716;53.114;18.040;2022-08-25T06:44:20;11.05;;;3.58;;
19167;SDS011;9716;53.114;18.040;2022-08-25T06:46:50;9.13;;;4.53;;
19167;SDS011;9716;53.114;18.040;2022-08-25T06:49:19;6.85;;;3.65;;
19167;SDS011;9716;53.114;18.040;2022-08-25T06:51:48;7.82;;;3.25;;
19167;SDS011;9716;53.114;18.040;2022-08-25T06:54:16;16.20;;;4.45;;
19167;SDS011;9716;53.114;18.040;2022-08-25T06:56:46;19.08;;;3.75;;
19167;SDS011;9716;53.114;18.040;2022-08-25T06:59:16;14.70;;;4.63;;
19167;SDS011;9716;53.114;18.040;2022-08-25T07:01:44;14.88;;;4.15;;
19167;SDS011;9716;53.114;18.040;2022-08-25T07:04:16;11.77;;;4.20;;
19167;SDS011;9716;53.114;18.040;2022-08-25T07:06:44;7.78;;;3.13;;
19167;SDS011;9716;53.114;18.040;2022-08-25T07:09:13;5.97;;;3.10;;
19167;SDS011;9716;53.114;18.040;2022-08-25T07:11:44;7.10;;;4.15;;
19167;SDS011;9716;53.114;18.040;2022-08-25T07:14:15;9.07;;;3.33;;
19167;SDS011;9716;53.114;18.040;2022-08-25T07:16:44;12.55;;;3.78;;
19167;SDS011;9716;53.114;18.040;2022-08-25T07:19:16;16.58;;;3.67;;
19167;SDS011;9716;53.114;18.040;2022-08-25T07:21:48;14.38;;;3.83;;
19167;SDS011;9716;53.114;18.040;2022-08-25T07:24:19;8.43;;;3.70;;
19167;SDS011;9716;53.114;18.040;2022-08-25T07:26:50;16.08;;;4.68;;
19167;SDS011;9716;53.114;18.040;2022-08-25T07:29:20;9.30;;;3.65;;
19167;SDS011;9716;53.114;18.040;2022-08-25T07:31:58;16.77;;;3.67;;
19167;SDS011;9716;53.114;18.040;2022-08-25T07:34:28;9.82;;;3.70;;
19167;SDS011;9716;53.114;18.040;2022-08-25T07:37:19;7.10;;;3.70;;
19167;SDS011;9716;53.114;18.040;2022-08-25T07:40:10;6.20;;;3.22;;
19167;SDS011;9716;53.114;18.040;2022-08-25T07:42:41;17.52;;;3.72;;
19167;SDS011;9716;53.114;18.040;2022-08-25T07:45:10;6.50;;;3.15;;
19167;SDS011;9716;53.114;18.040;2022-08-25T07:47:46;5.35;;;3.20;;
19167;SDS011;9716;53.114;18.040;2022-08-25T07:50:17;7.55;;;3.83;;
19167;SDS011;9716;53.114;18.040;2022-08-25T07:52:47;9.32;;;3.40;;
19167;SDS011;9716;53.114;18.040;2022-08-25T07:55:21;9.45;;;3.00;;
19167;SDS011;9716;53.114;18.040;2022-08-25T07:57:54;5.05;;;3.42;;
19167;SDS011;9716;53.114;18.040;2022-08-25T08:00:25;10.02;;;3.15;;
19167;SDS011;9716;53.114;18.040;2022-08-25T08:02:56;7.32;;;3.50;;
19167;SDS011;9716;53.114;18.040;2022-08-25T08:05:25;6.45;;;2.58;;
19167;SDS011;9716;53.114;18.040;2022-08-25T08:07:55;9.90;;;3.08;;
19167;SDS011;9716;53.114;18.040;2022-08-25T08:10:25;6.68;;;3.28;;
19167;SDS011;9716;53.114;18.040;2022-08-25T08:13:15;6.65;;;3.00;;
19167;SDS011;9716;53.114;18.040;2022-08-25T08:15:46;5.57;;;2.63;;
19167;SDS011;9716;53.114;18.040;2022-08-25T08:18:15;5.75;;;2.83;;
19167;SDS011;9716;53.114;18.040;2022-08-25T08:20:44;4.78;;;3.03;;
19167;SDS011;9716;53.114;18.040;2022-08-25T08:23:13;8.48;;;2.88;;
19167;SDS011;9716;53.114;18.040;2022-08-25T08:25:43;12.15;;;3.85;;
19167;SDS011;9716;53.114;18.040;2022-08-25T08:28:11;8.52;;;3.22;;
19167;SDS011;9716;53.114;18.040;2022-08-25T08:30:41;7.82;;;3.60;;
19167;SDS011;9716;53.114;18.040;2022-08-25T08:33:20;7.45;;;3.58;;
19167;SDS011;9716;53.114;18.040;2022-08-25T08:35:57;6.22;;;2.78;;
19167;SDS011;9716;53.114;18.040;2022-08-25T08:38:31;9.45;;;4.30;;
19167;SDS011;9716;53.114;18.040;2022-08-25T08:41:06;5.82;;;3.70;;
19167;SDS011;9716;53.114;18.040;2022-08-25T08:44:23;7.30;;;4.07;;
19167;SDS011;9716;53.114;18.040;2022-08-25T08:47:02;11.57;;;3.70;;
19167;SDS011;9716;53.114;18.040;2022-08-25T08:49:36;8.52;;;3.90;;
19167;SDS011;9716;53.114;18.040;2022-08-25T08:52:13;8.95;;;3.42;;
19167;SDS011;9716;53.114;18.040;2022-08-25T08:54:46;7.30;;;2.90;;
19167;SDS011;9716;53.114;18.040;2022-08-25T08:57:23;9.80;;;3.70;;
19167;SDS011;9716;53.114;18.040;2022-08-25T08:59:56;5.85;;;3.25;;
19167;SDS011;9716;53.114;18.040;2022-08-25T09:02:30;9.98;;;2.95;;
19167;SDS011;9716;53.114;18.040;2022-08-25T09:05:17;5.15;;;2.67;;
19167;SDS011;9716;53.114;18.040;2022-08-25T09:07:49;2.90;;;2.20;;
19167;SDS011;9716;53.114;18.040;2022-08-25T09:10:22;8.90;;;2.47;;
19167;SDS011;9716;53.114;18.040;2022-08-25T09:13:01;3.90;;;2.22;;
19167;SDS011;9716;53.114;18.040;2022-08-25T09:15:43;11.50;;;2.28;;
19167;SDS011;9716;53.114;18.040;2022-08-25T09:19:04;7.72;;;2.47;;
19167;SDS011;9716;53.114;18.040;2022-08-25T09:21:51;6.55;;;2.67;;
19167;SDS011;9716;53.114;18.040;2022-08-25T09:24:28;12.85;;;2.55;;
19167;SDS011;9716;53.114;18.040;2022-08-25T09:27:10;1.92;;;1.73;;
19167;SDS011;9716;53.114;18.040;2022-08-25T09:29:52;21.48;;;2.55;;
19167;SDS011;9716;53.114;18.040;2022-08-25T09:32:32;6.38;;;3.50;;
19167;SDS011;9716;53.114;18.040;2022-08-25T09:35:07;8.85;;;2.60;;
19167;SDS011;9716;53.114;18.040;2022-08-25T09:37:41;9.55;;;2.72;;
19167;SDS011;9716;53.114;18.040;2022-08-25T09:40:10;11.68;;;2.85;;
19167;SDS011;9716;53.114;18.040;2022-08-25T09:42:45;8.10;;;2.35;;
19167;SDS011;9716;53.114;18.040;2022-08-25T09:45:18;10.90;;;2.42;;
19167;SDS011;9716;53.114;18.040;2022-08-25T09:48:00;3.60;;;2.28;;
19167;SDS011;9716;53.114;18.040;2022-08-25T09:50:31;7.00;;;2.15;;
19167;SDS011;9716;53.114;18.040;2022-08-25T09:53:10;3.28;;;2.00;;
19167;SDS011;9716;53.114;18.040;2022-08-25T09:55:51;3.33;;;1.83;;
19167;SDS011;9716;53.114;18.040;2022-08-25T09:58:26;2.85;;;2.13;;
19167;SDS011;9716;53.114;18.040;2022-08-25T10:01:05;11.90;;;2.53;;
19167;SDS011;9716;53.114;18.040;2022-08-25T10:03:53;2.35;;;2.03;;
19167;SDS011;9716;53.114;18.040;2022-08-25T10:06:26;8.75;;;2.25;;
19167;SDS011;9716;53.114;18.040;2022-08-25T10:09:02;16.33;;;2.45;;
19167;SDS011;9716;53.114;18.040;2022-08-25T10:11:34;7.65;;;2.90;;
19167;SDS011;9716;53.114;18.040;2022-08-25T10:14:18;7.32;;;2.88;;
19167;SDS011;9716;53.114;18.040;2022-08-25T10:17:10;11.15;;;2.90;;
19167;SDS011;9716;53.114;18.040;2022-08-25T10:19:40;7.55;;;2.40;;
19167;SDS011;9716;53.114;18.040;2022-08-25T10:22:11;7.13;;;2.83;;
19167;SDS011;9716;53.114;18.040;2022-08-25T10:24:49;6.60;;;2.67;;
19167;SDS011;9716;53.114;18.040;2022-08-25T10:27:21;4.65;;;2.88;;
19167;SDS011;9716;53.114;18.040;2022-08-25T10:32:50;5.95;;;2.90;;
19167;SDS011;9716;53.114;18.040;2022-08-25T10:35:46;15.15;;;3.10;;
19167;SDS011;9716;53.114;18.040;2022-08-25T10:38:29;5.05;;;2.55;;
19167;SDS011;9716;53.114;18.040;2022-08-25T10:41:17;4.63;;;2.25;;
19167;SDS011;9716;53.114;18.040;2022-08-25T10:44:00;6.60;;;2.78;;
19167;SDS011;9716;53.114;18.040;2022-08-25T10:47:00;4.05;;;2.35;;
19167;SDS011;9716;53.114;18.040;2022-08-25T10:49:45;6.78;;;3.17;;
19167;SDS011;9716;53.114;18.040;2022-08-25T10:52:17;8.02;;;2.42;;
19167;SDS011;9716;53.114;18.040;2022-08-25T10:54:57;2.97;;;2.33;;
19167;SDS011;9716;53.114;18.040;2022-08-25T10:57:34;4.70;;;2.10;;
19167;SDS011;9716;53.114;18.040;2022-08-25T11:00:11;6.35;;;2.78;;
19167;SDS011;9716;53.114;18.040;2022-08-25T11:05:40;5.90;;;2.50;;
19167;SDS011;9716;53.114;18.040;2022-08-25T11:08:15;4.30;;;2.63;;
19167;SDS011;9716;53.114;18.040;2022-08-25T11:10:51;3.42;;;2.25;;
19167;SDS011;9716;53.114;18.040;2022-08-25T11:13:25;7.65;;;2.33;;
19167;SDS011;9716;53.114;18.040;2022-08-25T11:16:02;7.07;;;2.67;;
19167;SDS011;9716;53.114;18.040;2022-08-25T11:18:50;3.75;;;2.20;;
19167;SDS011;9716;53.114;18.040;2022-08-25T11:21:25;11.32;;;2.83;;
19167;SDS011;9716;53.114;18.040;2022-08-25T11:24:05;4.20;;;2.30;;
19167;SDS011;9716;53.114;18.040;2022-08-25T11:26:46;3.25;;;2.33;;
19167;SDS011;9716;53.114;18.040;2022-08-25T11:29:22;3.00;;;2.03;;
19167;SDS011;9716;53.114;18.040;2022-08-25T11:31:57;5.05;;;2.50;;
19167;SDS011;9716;53.114;18.040;2022-08-25T11:34:27;8.45;;;2.85;;
19167;SDS011;9716;53.114;18.040;2022-08-25T11:37:00;4.53;;;2.50;;
19167;SDS011;9716;53.114;18.040;2022-08-25T11:39:41;8.93;;;2.60;;
19167;SDS011;9716;53.114;18.040;2022-08-25T11:42:41;4.07;;;2.42;;
19167;SDS011;9716;53.114;18.040;2022-08-25T11:45:22;3.58;;;1.85;;
19167;SDS011;9716;53.114;18.040;2022-08-25T11:48:14;3.75;;;2.30;;
19167;SDS011;9716;53.114;18.040;2022-08-25T11:50:56;28.58;;;2.17;;
19167;SDS011;9716;53.114;18.040;2022-08-25T11:53:31;7.32;;;2.85;;
19167;SDS011;9716;53.114;18.040;2022-08-25T11:56:03;4.25;;;2.05;;
19167;SDS011;9716;53.114;18.040;2022-08-25T11:58:44;9.50;;;2.35;;
19167;SDS011;9716;53.114;18.040;2022-08-25T12:04:37;2.58;;;2.25;;
19167;SDS011;9716;53.114;18.040;2022-08-25T12:10:52;6.32;;;2.28;;
19167;SDS011;9716;53.114;18.040;2022-08-25T12:16:37;9.00;;;3.13;;
19167;SDS011;9716;53.114;18.040;2022-08-25T12:19:22;6.03;;;3.17;;
19167;SDS011;9716;53.114;18.040;2022-08-25T12:21:55;9.85;;;2.38;;
19167;SDS011;9716;53.114;18.040;2022-08-25T12:24:47;16.45;;;2.92;;
19167;SDS011;9716;53.114;18.040;2022-08-25T12:27:21;3.92;;;2.33;;
19167;SDS011;9716;53.114;18.040;2022-08-25T12:30:02;4.93;;;2.70;;
19167;SDS011;9716;53.114;18.040;2022-08-25T12:32:54;16.15;;;2.63;;
19167;SDS011;9716;53.114;18.040;2022-08-25T12:35:29;8.85;;;2.22;;
19167;SDS011;9716;53.114;18.040;2022-08-25T12:38:00;5.22;;;2.80;;
19167;SDS011;9716;53.114;18.040;2022-08-25T12:40:33;7.68;;;2.72;;
19167;SDS011;9716;53.114;18.040;2022-08-25T12:43:07;4.30;;;2.55;;
19167;SDS011;9716;53.114;18.040;2022-08-25T12:45:44;9.30;;;2.85;;
19167;SDS011;9716;53.114;18.040;2022-08-25T12:51:26;8.55;;;3.03;;
19167;SDS011;9716;53.114;18.040;2022-08-25T12:54:10;18.52;;;3.15;;
19167;SDS011;9716;53.114;18.040;2022-08-25T12:56:49;7.60;;;2.65;;
19167;SDS011;9716;53.114;18.040;2022-08-25T12:59:22;9.38;;;2.55;;
19167;SDS011;9716;53.114;18.040;2022-08-25T13:02:10;5.80;;;2.38;;
19167;SDS011;9716;53.114;18.040;2022-08-25T13:05:03;13.85;;;2.67;;
19167;SDS011;9716;53.114;18.040;2022-08-25T13:07:49;7.15;;;2.20;;
19167;SDS011;9716;53.114;18.040;2022-08-25T13:10:43;5.97;;;2.63;;
19167;SDS011;9716;53.114;18.040;2022-08-25T13:13:17;5.65;;;2.33;;
19167;SDS011;9716;53.114;18.040;2022-08-25T13:15:57;4.30;;;2.72;;
19167;SDS011;9716;53.114;18.040;2022-08-25T13:18:28;11.40;;;3.40;;
19167;SDS011;9716;53.114;18.040;2022-08-25T13:21:02;24.58;;;3.45;;
19167;SDS011;9716;53.114;18.040;2022-08-25T13:23:36;8.55;;;2.70;;
19167;SDS011;9716;53.114;18.040;2022-08-25T13:26:06;4.63;;;2.38;;
19167;SDS011;9716;53.114;18.040;2022-08-25T13:28:36;10.32;;;2.10;;
19167;SDS011;9716;53.114;18.040;2022-08-25T13:31:17;3.38;;;2.20;;
19167;SDS011;9716;53.114;18.040;2022-08-25T13:33:50;10.32;;;2.97;;
19167;SDS011;9716;53.114;18.040;2022-08-25T13:36:21;7.28;;;2.75;;
19167;SDS011;9716;53.114;18.040;2022-08-25T13:39:20;9.85;;;2.70;;
19167;SDS011;9716;53.114;18.040;2022-08-25T13:42:12;8.80;;;2.22;;
19167;SDS011;9716;53.114;18.040;2022-08-25T13:44:43;13.35;;;3.72;;
19167;SDS011;9716;53.114;18.040;2022-08-25T13:47:30;6.57;;;2.88;;
19167;SDS011;9716;53.114;18.040;2022-08-25T13:50:19;12.57;;;3.67;;
19167;SDS011;9716;53.114;18.040;2022-08-25T13:52:58;5.45;;;2.72;;
19167;SDS011;9716;53.114;18.040;2022-08-25T13:55:30;10.40;;;2.88;;
19167;SDS011;9716;53.114;18.040;2022-08-25T13:58:19;5.93;;;3.40;;
19167;SDS011;9716;53.114;18.040;2022-08-25T14:01:10;7.22;;;2.83;;
19167;SDS011;9716;53.114;18.040;2022-08-25T14:07:11;13.73;;;3.63;;
19167;SDS011;9716;53.114;18.040;2022-08-25T14:10:01;10.60;;;3.90;;
19167;SDS011;9716;53.114;18.040;2022-08-25T14:12:33;10.82;;;3.00;;
19167;SDS011;9716;53.114;18.040;2022-08-25T14:15:09;10.95;;;3.45;;
19167;SDS011;9716;53.114;18.040;2022-08-25T14:17:40;11.38;;;3.13;;
19167;SDS011;9716;53.114;18.040;2022-08-25T14:20:18;9.45;;;3.50;;
19167;SDS011;9716;53.114;18.040;2022-08-25T14:23:06;13.43;;;3.25;;
19167;SDS011;9716;53.114;18.040;2022-08-25T14:25:42;11.13;;;2.90;;
19167;SDS011;9716;53.114;18.040;2022-08-25T14:28:12;15.15;;;3.75;;
19167;SDS011;9716;53.114;18.040;2022-08-25T14:30:43;13.18;;;3.63;;
19167;SDS011;9716;53.114;18.040;2022-08-25T14:33:17;7.78;;;3.15;;
19167;SDS011;9716;53.114;18.040;2022-08-25T14:35:50;28.30;;;3.63;;
19167;SDS011;9716;53.114;18.040;2022-08-25T14:38:22;26.58;;;3.22;;
19167;SDS011;9716;53.114;18.040;2022-08-25T14:40:51;20.77;;;2.97;;
19167;SDS011;9716;53.114;18.040;2022-08-25T14:43:24;10.18;;;3.60;;
19167;SDS011;9716;53.114;18.040;2022-08-25T14:45:58;6.07;;;2.55;;
19167;SDS011;9716;53.114;18.040;2022-08-25T14:48:29;17.67;;;3.55;;
19167;SDS011;9716;53.114;18.040;2022-08-25T14:51:02;8.75;;;3.17;;
19167;SDS011;9716;53.114;18.040;2022-08-25T14:53:33;21.60;;;3.15;;
19167;SDS011;9716;53.114;18.040;2022-08-25T14:56:02;4.90;;;2.88;;
19167;SDS011;9716;53.114;18.040;2022-08-25T14:58:36;13.68;;;3.40;;
19167;SDS011;9716;53.114;18.040;2022-08-25T15:01:20;13.75;;;3.58;;
19167;SDS011;9716;53.114;18.040;2022-08-25T15:03:57;14.90;;;3.92;;
19167;SDS011;9716;53.114;18.040;2022-08-25T15:06:30;8.23;;;2.78;;
19167;SDS011;9716;53.114;18.040;2022-08-25T15:09:03;5.53;;;3.47;;
19167;SDS011;9716;53.114;18.040;2022-08-25T15:11:37;19.30;;;3.42;;
19167;SDS011;9716;53.114;18.040;2022-08-25T15:14:08;17.15;;;3.55;;
19167;SDS011;9716;53.114;18.040;2022-08-25T15:16:39;13.32;;;4.18;;
19167;SDS011;9716;53.114;18.040;2022-08-25T15:19:11;14.18;;;3.67;;
19167;SDS011;9716;53.114;18.040;2022-08-25T15:21:42;7.15;;;3.85;;
19167;SDS011;9716;53.114;18.040;2022-08-25T15:24:14;13.10;;;3.85;;
19167;SDS011;9716;53.114;18.040;2022-08-25T15:26:44;10.52;;;3.75;;
19167;SDS011;9716;53.114;18.040;2022-08-25T15:29:21;15.10;;;3.90;;
19167;SDS011;9716;53.114;18.040;2022-08-25T15:31:52;15.25;;;4.15;;
19167;SDS011;9716;53.114;18.040;2022-08-25T15:34:20;9.02;;;2.75;;
19167;SDS011;9716;53.114;18.040;2022-08-25T15:36:49;10.95;;;3.75;;
19167;SDS011;9716;53.114;18.040;2022-08-25T15:39:20;7.65;;;2.75;;
19167;SDS011;9716;53.114;18.040;2022-08-25T15:41:48;7.65;;;3.25;;
19167;SDS011;9716;53.114;18.040;2022-08-25T15:44:19;13.40;;;3.35;;
19167;SDS011;9716;53.114;18.040;2022-08-25T15:46:54;10.75;;;3.67;;